createdAt,value
2022-08-22T00:02:33.116Z,97.90
2022-08-22T00:02:46.875Z,97.50
2022-08-22T00:02:59.712Z,94.80
2022-08-22T00:03:03.074Z,92.70
2022-08-22T00:03:08.735Z,97.80
2022-08-22T00:05:06.540Z,97.90
2022-08-22T00:07:44.752Z,97.90
2022-08-22T00:10:24.987Z,97.70
2022-08-22T00:13:05.487Z,97.60
2022-08-22T00:15:43.533Z,97.60
2022-08-22T00:18:13.996Z,97.60
2022-08-22T00:20:53.061Z,97.20
2022-08-22T00:23:32.701Z,97.40
2022-08-22T00:26:03.675Z,97.50
2022-08-22T00:28:42.249Z,97.70
2022-08-22T00:31:17.870Z,97.50
2022-08-22T00:33:51.108Z,97.50
2022-08-22T00:36:30.844Z,97.70
2022-08-22T00:39:16.291Z,97.90
2022-08-22T00:42:31.690Z,97.30
2022-08-22T00:45:05.175Z,97.10
2022-08-22T00:47:46.902Z,97.30
2022-08-22T00:50:22.330Z,97.50
2022-08-22T00:53:07.898Z,97.50
2022-08-22T00:55:55.240Z,97.50
2022-08-22T00:58:45.504Z,97.50
2022-08-22T01:01:16.429Z,97.60
2022-08-22T01:03:49.005Z,97.60
2022-08-22T01:06:25.110Z,97.10
2022-08-22T01:09:01.351Z,96.80
2022-08-22T01:11:41.934Z,96.90
2022-08-22T01:14:35.137Z,96.90
2022-08-22T01:17:16.994Z,96.60
2022-08-22T01:20:02.572Z,96.60
2022-08-22T01:22:59.441Z,96.50
2022-08-22T01:25:58.242Z,96.50
2022-08-22T01:29:02.448Z,96.50
2022-08-22T01:32:05.311Z,96.50
2022-08-22T01:34:50.243Z,96.70
2022-08-22T01:37:43.436Z,96.70
2022-08-22T01:40:29.756Z,96.70
2022-08-22T01:43:15.005Z,96.70
2022-08-22T01:46:01.839Z,96.70
2022-08-22T01:48:40.397Z,96.40
2022-08-22T01:51:17.896Z,96.90
2022-08-22T01:53:58.286Z,96.90
2022-08-22T01:56:26.629Z,96.70
2022-08-22T01:59:01.639Z,96.70
2022-08-22T02:01:43.574Z,96.90
2022-08-22T02:04:19.176Z,97.20
2022-08-22T02:06:46.000Z,96.70
2022-08-22T02:09:36.313Z,96.60
2022-08-22T02:12:37.297Z,96.70
2022-08-22T02:15:23.353Z,96.80
2022-08-22T02:18:05.897Z,96.70
2022-08-22T02:20:39.415Z,96.60
2022-08-22T02:23:25.769Z,96.60
2022-08-22T02:25:55.626Z,96.80
2022-08-22T02:28:31.353Z,96.80
2022-08-22T02:31:16.958Z,96.60
2022-08-22T02:33:56.953Z,96.80
2022-08-22T02:36:51.835Z,96.50
2022-08-22T02:39:32.227Z,96.40
2022-08-22T02:42:24.997Z,96.50
2022-08-22T02:45:26.992Z,96.70
2022-08-22T02:48:19.816Z,96.60
2022-08-22T02:51:10.678Z,97.10
2022-08-22T02:54:12.901Z,96.60
2022-08-22T02:56:46.590Z,96.80
2022-08-22T02:59:34.865Z,97.00
2022-08-22T03:02:27.741Z,96.90
2022-08-22T03:05:20.672Z,96.80
2022-08-22T03:08:22.541Z,96.80
2022-08-22T03:11:08.183Z,97.00
2022-08-22T03:13:49.962Z,97.10
2022-08-22T03:16:59.739Z,97.10
2022-08-22T03:20:05.292Z,97.20
2022-08-22T03:22:43.679Z,97.00
2022-08-22T03:25:30.090Z,97.30
2022-08-22T03:28:03.336Z,97.00
2022-08-22T03:30:36.413Z,97.00
2022-08-22T03:33:22.814Z,97.20
2022-08-22T03:35:58.661Z,97.00
2022-08-22T03:38:37.788Z,97.20
2022-08-22T03:41:24.645Z,97.30
2022-08-22T03:44:30.635Z,97.30
2022-08-22T03:47:18.578Z,97.50
2022-08-22T03:50:00.782Z,97.50
2022-08-22T03:53:10.365Z,97.60
2022-08-22T03:56:05.106Z,97.60
2022-08-22T03:58:43.934Z,97.70
2022-08-22T04:01:21.997Z,97.80
2022-08-22T04:04:13.276Z,97.90
2022-08-22T04:07:15.838Z,98.30
2022-08-22T04:10:33.102Z,98.20
2022-08-22T04:13:18.725Z,98.40
2022-08-22T04:16:08.705Z,98.30
2022-08-22T04:18:47.445Z,98.40
2022-08-22T04:21:27.316Z,98.40
2022-08-22T04:24:10.879Z,98.50
2022-08-22T04:26:56.015Z,98.40
2022-08-22T04:29:35.364Z,98.20
2022-08-22T04:32:11.566Z,98.60
2022-08-22T04:34:51.865Z,98.50
2022-08-22T04:37:46.829Z,98.70
2022-08-22T04:40:32.156Z,98.80
2022-08-22T04:42:58.973Z,98.70
2022-08-22T04:45:41.625Z,98.50
2022-08-22T04:48:17.175Z,98.60
2022-08-22T04:50:47.671Z,98.70
2022-08-22T04:53:42.326Z,98.90
2022-08-22T04:56:42.344Z,98.70
2022-08-22T04:59:16.560Z,98.70
2022-08-22T05:01:54.647Z,98.70
2022-08-22T05:04:29.289Z,98.70
2022-08-22T05:07:28.474Z,98.70
2022-08-22T05:10:20.365Z,98.60
2022-08-22T05:12:56.024Z,98.80
2022-08-22T05:15:31.456Z,98.80
2022-08-22T05:18:04.339Z,98.70
2022-08-22T05:20:31.500Z,98.60
2022-08-22T05:23:05.923Z,98.70
2022-08-22T05:25:37.885Z,98.50
2022-08-22T05:28:14.866Z,98.90
2022-08-22T05:30:45.959Z,98.60
2022-08-22T05:33:30.873Z,98.70
2022-08-22T05:36:06.410Z,98.80
2022-08-22T05:38:36.584Z,98.70
2022-08-22T05:41:16.651Z,98.60
2022-08-22T05:43:45.363Z,98.70
2022-08-22T05:46:27.306Z,98.60
2022-08-22T05:48:59.934Z,98.60
2022-08-22T05:51:41.869Z,98.80
2022-08-22T05:54:34.649Z,99.10
2022-08-22T05:57:30.226Z,99.10
2022-08-22T06:00:12.424Z,99.00
2022-08-22T06:02:50.509Z,99.40
2022-08-22T06:05:25.437Z,99.30
2022-08-22T06:08:24.030Z,99.00
2022-08-22T06:10:56.263Z,98.80
2022-08-22T06:13:47.379Z,98.70
2022-08-22T06:16:21.588Z,98.70
2022-08-22T06:18:50.553Z,98.70
2022-08-22T06:21:42.027Z,98.90
2022-08-22T06:24:16.599Z,98.60
2022-08-22T06:26:48.801Z,98.70
2022-08-22T06:29:39.552Z,99.00
2022-08-22T06:32:16.669Z,98.80
2022-08-22T06:35:06.855Z,99.20
2022-08-22T06:37:39.569Z,99.20
2022-08-22T06:40:08.839Z,99.70
2022-08-22T06:42:41.674Z,99.40
2022-08-22T06:45:12.803Z,99.30
2022-08-22T06:47:49.839Z,99.40
2022-08-22T06:50:28.268Z,99.50
2022-08-22T06:53:28.775Z,99.30
2022-08-22T06:56:04.469Z,99.20
2022-08-22T06:58:45.215Z,98.80
2022-08-22T07:01:25.280Z,98.90
2022-08-22T07:03:55.086Z,99.30
2022-08-22T07:06:37.135Z,99.40
2022-08-22T07:09:06.974Z,99.20
2022-08-22T07:11:39.638Z,99.40
2022-08-22T07:14:14.095Z,99.50
2022-08-22T07:16:55.400Z,99.50
2022-08-22T07:19:34.628Z,99.10
2022-08-22T07:22:27.102Z,98.90
2022-08-22T07:25:20.414Z,99.20
2022-08-22T07:28:19.650Z,99.40
2022-08-22T07:31:08.839Z,99.60
2022-08-22T07:34:03.168Z,99.70
2022-08-22T07:36:58.605Z,99.70
2022-08-22T07:39:50.265Z,99.40
2022-08-22T07:42:26.519Z,99.10
2022-08-22T07:45:10.690Z,98.90
2022-08-22T07:48:00.271Z,99.00
2022-08-22T07:50:36.864Z,98.90
2022-08-22T07:53:37.181Z,99.00
2022-08-22T07:56:07.666Z,99.10
2022-08-22T07:58:39.617Z,99.10
2022-08-22T08:01:15.391Z,98.90
2022-08-22T08:03:47.327Z,98.70
2022-08-22T08:06:14.407Z,99.00
2022-08-22T08:08:44.449Z,99.30
2022-08-22T08:11:14.182Z,99.30
2022-08-22T08:13:45.245Z,99.50
2022-08-22T08:16:19.385Z,99.30
2022-08-22T08:18:50.075Z,99.50
2022-08-22T08:21:28.659Z,99.60
2022-08-22T08:23:58.237Z,98.80
2022-08-22T08:26:34.790Z,99.00
2022-08-22T08:29:03.826Z,99.10
2022-08-22T08:31:43.391Z,98.90
2022-08-22T08:34:24.769Z,98.60
2022-08-22T08:37:12.942Z,98.80
2022-08-22T08:39:51.494Z,99.10
2022-08-22T08:42:24.229Z,99.20
2022-08-22T08:45:28.929Z,99.00
2022-08-22T08:48:07.825Z,99.20
2022-08-22T08:51:02.124Z,98.60
2022-08-22T08:53:51.084Z,98.50
2022-08-22T08:56:49.724Z,98.40
2022-08-22T08:59:30.189Z,98.00
2022-08-22T09:02:13.922Z,97.70
2022-08-22T09:05:14.791Z,97.80
2022-08-22T09:07:57.057Z,97.20
2022-08-22T09:10:43.881Z,97.00
2022-08-22T09:13:40.665Z,97.20
2022-08-22T09:16:16.799Z,97.80
2022-08-22T09:19:24.581Z,97.20
2022-08-22T09:22:14.502Z,97.20
2022-08-22T09:24:53.824Z,96.90
2022-08-22T09:27:33.390Z,96.60
2022-08-22T09:30:07.168Z,96.80
2022-08-22T09:32:58.596Z,96.60
2022-08-22T09:35:49.017Z,97.30
2022-08-22T09:38:36.894Z,97.20
2022-08-22T09:41:37.213Z,96.60
2022-08-22T09:44:29.933Z,96.40
2022-08-22T09:47:35.732Z,96.30
2022-08-22T09:50:22.198Z,95.50
2022-08-22T09:53:09.261Z,96.00
2022-08-22T09:56:26.150Z,95.50
2022-08-22T09:59:13.294Z,95.30
2022-08-22T10:02:31.606Z,94.90
2022-08-22T10:05:04.070Z,95.00
2022-08-22T10:08:01.969Z,95.20
2022-08-22T10:10:47.155Z,94.70
2022-08-22T10:13:44.934Z,94.60
2022-08-22T10:16:23.975Z,93.70
2022-08-22T10:19:18.029Z,93.70
2022-08-22T10:22:03.792Z,94.20
2022-08-22T10:24:30.525Z,93.30
2022-08-22T10:27:07.998Z,93.70
2022-08-22T10:29:47.109Z,94.30
2022-08-22T10:32:33.571Z,93.70
2022-08-22T10:35:34.057Z,93.90
2022-08-22T10:38:15.845Z,93.70
2022-08-22T10:40:42.665Z,94.20
2022-08-22T10:43:31.573Z,94.00
2022-08-22T10:46:06.790Z,94.20
2022-08-22T10:48:51.214Z,94.10
2022-08-22T10:51:36.711Z,94.30
2022-08-22T10:54:45.193Z,94.30
2022-08-22T10:57:52.847Z,94.40
2022-08-22T11:00:58.424Z,93.50
2022-08-22T11:03:51.546Z,93.30
2022-08-22T11:06:44.848Z,93.60
2022-08-22T11:09:37.084Z,94.20
2022-08-22T11:12:11.727Z,94.80
2022-08-22T11:15:03.261Z,95.20
2022-08-22T11:17:38.155Z,95.20
2022-08-22T11:20:58.436Z,94.80
2022-08-22T11:23:48.851Z,94.30
2022-08-22T11:26:46.663Z,94.30
2022-08-22T11:29:38.828Z,94.00
2022-08-22T11:32:33.505Z,94.50
2022-08-22T11:35:22.906Z,94.20
2022-08-22T11:38:10.934Z,94.40
2022-08-22T11:41:05.697Z,94.10
2022-08-22T11:43:47.864Z,94.00
2022-08-22T11:46:20.383Z,94.00
2022-08-22T11:49:25.639Z,93.90
2022-08-22T11:52:14.592Z,93.90
2022-08-22T11:55:07.250Z,93.30
2022-08-22T11:57:53.188Z,93.80
2022-08-22T12:00:32.488Z,93.80
2022-08-22T12:03:23.234Z,94.10
2022-08-22T12:06:16.627Z,94.50
2022-08-22T12:08:52.035Z,94.00
2022-08-22T12:11:27.153Z,94.00
2022-08-22T12:14:06.398Z,94.40
2022-08-22T12:16:36.640Z,95.10
2022-08-22T12:19:32.858Z,95.30
2022-08-22T12:22:50.677Z,94.20
2022-08-22T12:25:44.812Z,94.30
2022-08-22T12:28:43.047Z,93.80
2022-08-22T12:31:30.168Z,94.00
2022-08-22T12:34:06.418Z,94.50
2022-08-22T12:36:48.312Z,95.20
2022-08-22T12:39:26.239Z,95.30
2022-08-22T12:42:19.967Z,95.60
2022-08-22T12:44:46.739Z,95.60
2022-08-22T12:47:42.318Z,95.80
2022-08-22T12:50:33.092Z,96.00
2022-08-22T12:53:21.430Z,96.30
2022-08-22T12:56:21.538Z,95.40
2022-08-22T12:59:12.764Z,96.20
2022-08-22T13:01:47.039Z,95.60
2022-08-22T13:04:31.054Z,95.90
2022-08-22T13:07:07.612Z,95.60
2022-08-22T13:09:37.968Z,95.10
2022-08-22T13:12:21.202Z,95.30
2022-08-22T13:14:52.800Z,95.80
2022-08-22T13:17:24.259Z,95.50
2022-08-22T13:20:02.015Z,95.60
2022-08-22T13:22:32.656Z,96.80
2022-08-22T13:25:25.444Z,95.20
2022-08-22T13:27:59.933Z,95.00
2022-08-22T13:30:40.359Z,95.00
2022-08-22T13:33:35.391Z,94.90
2022-08-22T13:36:15.548Z,95.40
2022-08-22T13:38:58.358Z,95.40
2022-08-22T13:41:33.158Z,95.20
2022-08-22T13:44:09.323Z,95.40
2022-08-22T13:46:52.726Z,95.30
2022-08-22T13:49:37.137Z,95.30
2022-08-22T13:52:29.616Z,95.30
2022-08-22T13:55:27.660Z,95.40
2022-08-22T13:58:18.168Z,96.00
2022-08-22T14:01:25.394Z,95.40
2022-08-22T14:04:26.650Z,95.40
2022-08-22T14:07:37.897Z,95.10
2022-08-22T14:10:14.701Z,95.40
2022-08-22T14:12:50.780Z,95.40
2022-08-22T14:15:24.307Z,95.50
2022-08-22T14:17:55.810Z,95.90
2022-08-22T14:20:32.622Z,96.20
2022-08-22T14:23:07.162Z,96.00
2022-08-22T14:25:36.772Z,96.10
2022-08-22T14:28:11.157Z,96.90
2022-08-22T14:30:59.412Z,96.00
2022-08-22T14:33:40.037Z,95.20
2022-08-22T14:36:35.604Z,95.20
2022-08-22T14:39:27.938Z,94.60
2022-08-22T14:42:13.119Z,95.80
2022-08-22T14:45:07.054Z,95.20
2022-08-22T14:47:55.061Z,95.00
2022-08-22T14:50:43.644Z,95.10
2022-08-22T14:53:26.902Z,95.00
2022-08-22T14:56:06.559Z,95.00
2022-08-22T14:58:45.716Z,95.10
2022-08-22T15:01:15.932Z,95.70
2022-08-22T15:03:51.151Z,95.60
2022-08-22T15:06:47.831Z,95.90
2022-08-22T15:09:30.919Z,95.20
2022-08-22T15:11:58.271Z,95.20
2022-08-22T15:14:52.328Z,95.70
2022-08-22T15:17:55.012Z,95.60
2022-08-22T15:20:28.485Z,95.80
2022-08-22T15:23:00.601Z,95.70
2022-08-22T15:25:35.233Z,96.40
2022-08-22T15:28:20.345Z,96.60
2022-08-22T15:31:03.782Z,97.00
2022-08-22T15:33:39.703Z,96.30
2022-08-22T15:36:23.995Z,96.80
2022-08-22T15:39:15.534Z,96.70
2022-08-22T15:41:47.926Z,96.60
2022-08-22T15:44:30.890Z,95.90
2022-08-22T15:47:00.973Z,95.80
2022-08-22T15:49:31.761Z,95.60
2022-08-22T15:52:01.601Z,95.90
2022-08-22T15:54:31.584Z,95.80
2022-08-22T15:57:10.361Z,96.10
2022-08-22T15:59:53.746Z,96.00
2022-08-22T16:02:37.258Z,96.10
2022-08-22T16:05:10.468Z,96.00
2022-08-22T16:07:46.132Z,95.90
2022-08-22T16:10:22.045Z,96.00
2022-08-22T16:13:10.653Z,95.70
2022-08-22T16:15:56.271Z,95.90
2022-08-22T16:18:37.117Z,95.80
2022-08-22T16:21:05.266Z,96.10
2022-08-22T16:23:50.110Z,96.70
2022-08-22T16:26:23.300Z,96.60
2022-08-22T16:28:58.531Z,96.90
2022-08-22T16:31:34.289Z,96.80
2022-08-22T16:34:16.354Z,96.80
2022-08-22T16:37:14.490Z,96.60
2022-08-22T16:40:03.378Z,96.30
2022-08-22T16:42:43.248Z,96.60
2022-08-22T16:45:32.820Z,96.30
2022-08-22T16:48:25.886Z,96.20
2022-08-22T16:51:06.673Z,96.10
2022-08-22T16:53:45.895Z,97.10
2022-08-22T16:56:36.083Z,96.60
2022-08-22T16:59:22.893Z,97.00
2022-08-22T17:02:03.905Z,96.50
2022-08-22T17:04:43.915Z,96.90
2022-08-22T17:07:27.432Z,96.70
2022-08-22T17:10:00.292Z,96.10
2022-08-22T17:12:49.138Z,96.30
2022-08-22T17:15:34.705Z,95.80
2022-08-22T17:18:14.197Z,95.80
2022-08-22T17:20:47.395Z,95.50
2022-08-22T17:23:35.634Z,95.40
2022-08-22T17:26:35.296Z,95.60
2022-08-22T17:29:24.154Z,95.90
2022-08-22T17:31:54.939Z,96.40
2022-08-22T17:34:39.219Z,95.70
2022-08-22T17:37:21.735Z,96.90
2022-08-22T17:40:00.621Z,96.70
2022-08-22T17:42:43.455Z,96.90
2022-08-22T17:45:39.817Z,97.20
2022-08-22T17:48:48.324Z,97.40
2022-08-22T17:51:25.326Z,96.80
2022-08-22T17:54:19.535Z,97.80
2022-08-22T17:57:05.258Z,96.30
2022-08-22T17:59:40.093Z,96.30
2022-08-22T18:02:13.821Z,95.90
2022-08-22T18:04:48.217Z,96.20
2022-08-22T18:07:15.040Z,96.40
2022-08-22T18:09:53.869Z,96.50
2022-08-22T18:12:32.356Z,96.80
2022-08-22T18:15:29.438Z,96.60
2022-08-22T18:18:19.202Z,96.50
2022-08-22T18:21:11.755Z,96.40
2022-08-22T18:23:47.188Z,96.40
2022-08-22T18:26:27.908Z,97.10
2022-08-22T18:29:08.598Z,97.30
2022-08-22T18:31:49.889Z,97.40
2022-08-22T18:34:38.300Z,97.70
2022-08-22T18:37:23.581Z,98.40
2022-08-22T18:40:11.739Z,97.80
2022-08-22T18:42:54.797Z,97.50
2022-08-22T18:45:46.300Z,98.00
2022-08-22T18:48:22.518Z,97.50
2022-08-22T18:50:49.904Z,97.50
2022-08-22T18:53:43.541Z,97.40
2022-08-22T18:56:35.687Z,97.20
2022-08-22T18:59:43.774Z,97.70
2022-08-22T19:02:55.626Z,97.60
2022-08-22T19:05:44.343Z,98.10
2022-08-22T19:08:24.375Z,98.50
2022-08-22T19:11:08.119Z,98.30
2022-08-22T19:14:05.738Z,98.40
2022-08-22T19:17:11.029Z,98.50
2022-08-22T19:20:23.332Z,98.70
2022-08-22T19:22:51.044Z,99.20
2022-08-22T19:25:20.146Z,99.10
2022-08-22T19:28:06.939Z,99.90
2022-08-22T19:30:41.159Z,99.20
2022-08-22T19:33:12.695Z,99.30
2022-08-22T19:35:51.749Z,99.90
2022-08-22T19:38:57.071Z,99.90
2022-08-22T19:41:53.203Z,99.90
2022-08-22T19:44:19.944Z,99.90
2022-08-22T19:47:00.506Z,99.90
2022-08-22T19:49:29.181Z,99.90
2022-08-22T19:52:24.022Z,99.90
2022-08-22T19:55:15.816Z,99.70
2022-08-22T19:57:57.375Z,99.60
2022-08-22T20:00:42.756Z,99.90
2022-08-22T20:03:46.785Z,99.70
2022-08-22T20:06:44.696Z,99.90
2022-08-22T20:09:32.807Z,99.90
2022-08-22T20:12:06.629Z,99.90
2022-08-22T20:14:39.897Z,99.90
2022-08-22T20:17:09.760Z,99.90
2022-08-22T20:20:16.588Z,99.90
2022-08-22T20:22:54.290Z,99.90
2022-08-22T20:25:43.160Z,99.70
2022-08-22T20:28:40.869Z,99.70
2022-08-22T20:31:19.740Z,99.90
2022-08-22T20:33:47.080Z,99.80
2022-08-22T20:36:28.673Z,99.90
2022-08-22T20:39:05.957Z,99.90
2022-08-22T20:41:44.489Z,99.90
2022-08-22T20:44:20.111Z,99.90
2022-08-22T20:46:55.000Z,99.90
2022-08-22T20:49:48.551Z,99.90
2022-08-22T20:52:29.039Z,99.90
2022-08-22T20:55:16.842Z,99.90
2022-08-22T20:57:49.651Z,99.90
2022-08-22T21:00:24.723Z,99.90
2022-08-22T21:02:57.220Z,99.90
2022-08-22T21:05:31.843Z,99.90
2022-08-22T21:08:10.617Z,99.90
2022-08-22T21:10:58.025Z,99.90
2022-08-22T21:13:35.441Z,99.90
2022-08-22T21:16:13.410Z,99.90
2022-08-22T21:18:45.896Z,99.90
2022-08-22T21:21:20.665Z,99.90
2022-08-22T21:24:06.451Z,99.90
2022-08-22T21:26:38.468Z,99.90
2022-08-22T21:29:18.230Z,99.90
2022-08-22T21:31:49.967Z,99.90
2022-08-22T21:34:23.790Z,99.90
2022-08-22T21:36:53.342Z,99.90
2022-08-22T21:39:23.562Z,99.90
2022-08-22T21:42:11.865Z,99.90
2022-08-22T21:44:41.633Z,99.90
2022-08-22T21:47:30.248Z,99.90
2022-08-22T21:50:01.415Z,99.90
2022-08-22T21:52:49.591Z,99.90
2022-08-22T21:55:25.587Z,99.90
2022-08-22T21:58:35.164Z,99.90
2022-08-22T22:01:24.859Z,99.90
2022-08-22T22:03:52.197Z,99.90
2022-08-22T22:06:19.099Z,99.90
2022-08-22T22:08:46.382Z,99.90
2022-08-22T22:11:15.190Z,99.90
2022-08-22T22:13:42.574Z,99.90
2022-08-22T22:16:12.245Z,99.90
2022-08-22T22:18:40.040Z,99.90
2022-08-22T22:21:07.156Z,99.90
2022-08-22T22:23:34.044Z,99.90
2022-08-22T22:26:03.242Z,99.90
2022-08-22T22:28:33.631Z,99.90
2022-08-22T22:31:00.751Z,99.90
2022-08-22T22:33:30.754Z,99.90
2022-08-22T22:36:03.006Z,99.90
2022-08-22T22:38:29.998Z,99.90
2022-08-22T22:40:57.096Z,99.90
2022-08-22T22:43:26.316Z,99.90
2022-08-22T22:45:53.433Z,99.90
2022-08-22T22:48:23.920Z,99.90
2022-08-22T22:50:52.385Z,99.90
2022-08-22T22:53:21.256Z,99.90
2022-08-22T22:55:59.613Z,99.90
2022-08-22T22:58:27.991Z,99.90
2022-08-22T23:00:56.167Z,99.90
2022-08-22T23:03:23.257Z,99.90
2022-08-22T23:05:50.131Z,99.90
2022-08-22T23:08:16.994Z,99.90
2022-08-22T23:10:43.863Z,99.90
2022-08-22T23:13:10.776Z,99.90
2022-08-22T23:15:37.720Z,99.90
2022-08-22T23:18:04.639Z,99.90
2022-08-22T23:20:31.587Z,99.90
2022-08-22T23:22:59.627Z,99.90
2022-08-22T23:25:27.071Z,99.90
2022-08-22T23:27:54.334Z,99.90
2022-08-22T23:30:21.847Z,99.90
2022-08-22T23:32:49.259Z,99.90
2022-08-22T23:35:16.276Z,99.90
2022-08-22T23:37:43.123Z,99.90
2022-08-22T23:40:10.785Z,99.90
2022-08-22T23:42:37.708Z,99.90
2022-08-22T23:45:05.042Z,99.90
2022-08-22T23:47:31.896Z,99.90
2022-08-22T23:49:58.729Z,99.90
2022-08-22T23:52:31.229Z,99.90
2022-08-22T23:54:58.076Z,99.90
2022-08-22T23:57:27.342Z,99.90
2022-08-22T23:59:57.922Z,99.90
